ADDS METAR Data INFO
IDs: Format: Raw Decoded Include TAF

Data at: 0404 UTC 11 Dec 2017

KJMR 110355Z AUTO 00000KT 10SM CLR M08/M10 A2999 RMK AO2
KJMR 110335Z AUTO 00000KT 10SM CLR M08/M10 A2999 RMK AO2
KJMR 110315Z AUTO 00000KT 10SM CLR M09/M10 A2999 RMK AO2
KJMR 110255Z AUTO 00000KT 10SM CLR M10/M11 A2999 RMK AO2
KJMR 110235Z AUTO 00000KT 10SM CLR M10/M11 A3000 RMK AO2
KJMR 110215Z AUTO 00000KT 10SM CLR M10/M11 A3001 RMK AO2
KJMR 110155Z AUTO 00000KT 10SM CLR M09/M10 A3001 RMK AO2
KJMR 110135Z AUTO 00000KT 10SM CLR M09/M10 A3002 RMK AO2
KJMR 110115Z AUTO 00000KT 10SM CLR M08/M10 A3003 RMK AO2 PWINO
KJMR 110055Z AUTO 00000KT 10SM CLR M08/M10 A3003 RMK AO2 PWINO
KJMR 110035Z AUTO 00000KT 10SM CLR M08/M10 A3004 RMK AO2 PWINO
KJMR 110015Z AUTO 00000KT 10SM CLR M08/M10 A3004 RMK AO2 PWINO
KJMR 102355Z AUTO 00000KT 10SM CLR M07/M09 A3005 RMK AO2 PWINO
KJMR 102335Z AUTO 00000KT 10SM CLR M07/M10 A3005 RMK AO2 PWINO
KJMR 102315Z AUTO 00000KT 10SM CLR M06/M08 A3005 RMK AO2 PWINO
KJMR 102255Z AUTO 00000KT 10SM CLR M04/M08 A3005 RMK AO2 PWINO
KJMR 102235Z AUTO 00000KT 10SM CLR M03/M07 A3005 RMK AO2
KJMR 102215Z AUTO 00000KT 10SM CLR M03/M07 A3005 RMK AO2
KJMR 102155Z AUTO 34003KT 10SM CLR M03/M08 A3004 RMK AO2
KJMR 102135Z AUTO 34003KT 10SM CLR M02/M08 A3002 RMK AO2
KJMR 102115Z AUTO 35004KT 10SM SCT090 M02/M07 A3003 RMK AO2
KJMR 102055Z AUTO 34007KT 10SM BKN090 M03/M07 A3002 RMK AO2
KJMR 102035Z AUTO 34007KT 10SM SCT090 M03/M07 A3001 RMK AO2
KJMR 102015Z AUTO 32007KT 10SM SCT090 M03/M07 A3001 RMK AO2
KJMR 101955Z AUTO 33007KT 10SM SCT090 M03/M07 A3001 RMK AO2
KJMR 101935Z AUTO 32008KT 10SM SCT022 BKN090 M03/M07 A3001 RMK AO2
KJMR 101915Z AUTO 31008KT 10SM SCT022 BKN090 M03/M07 A3001 RMK AO2
KJMR 101855Z AUTO 32006KT 10SM SCT022 BKN090 M03/M07 A3000 RMK AO2
KJMR 101835Z AUTO 30008KT 10SM BKN022 BKN090 M03/M08 A3001 RMK AO2
KJMR 101815Z AUTO 35007KT 10SM BKN022 BKN090 M02/M07 A3001 RMK AO2
KJMR 101755Z AUTO 33008KT 10SM BKN020 M03/M07 A3001 RMK AO2
KJMR 101735Z AUTO 31008KT 10SM OVC020 M03/M07 A2999 RMK AO2
KJMR 101715Z AUTO 35005KT 10SM BKN020 M03/M07 A2999 RMK AO2
KJMR 101655Z AUTO 35005KT 10SM OVC020 M03/M07 A3000 RMK AO2
KJMR 101636Z AUTO 35006G14KT 10SM OVC018 M03/M07 A2999 RMK AO2
KJMR 101615Z AUTO 33010G16KT 10SM OVC018 M03/M07 A2999 RMK AO2
KJMR 101555Z AUTO 33011G16KT 10SM OVC018 M03/M06 A2998 RMK AO2
KJMR 101535Z AUTO 33012KT 10SM OVC018 M03/M06 A2997 RMK AO2
KJMR 101515Z AUTO 33009KT 10SM OVC018 M03/M06 A2996 RMK AO2
KJMR 101455Z AUTO 34006KT 10SM OVC018 M03/M06 A2995 RMK AO2
KJMR 101435Z AUTO 33009KT 10SM OVC018 M03/M06 A2994 RMK AO2
KJMR 101415Z AUTO 34004KT 10SM OVC018 M03/M06 A2993 RMK AO2
KJMR 101355Z AUTO 33006KT 10SM OVC018 M03/M06 A2992 RMK AO2
KJMR 101335Z AUTO 32005KT 10SM OVC020 M03/M06 A2991 RMK AO2
KJMR 101315Z AUTO 33005KT 10SM OVC020 M03/M06 A2990 RMK AO2
KJMR 101255Z AUTO 33005KT 10SM OVC022 M03/M06 A2990 RMK AO2
KJMR 101235Z AUTO 34005KT 10SM OVC022 M03/M06 A2990 RMK AO2
KJMR 101215Z AUTO 35003KT 10SM OVC024 M04/M06 A2988 RMK AO2
KJMR 101155Z AUTO 34005KT 10SM OVC024 M04/M06 A2988 RMK AO2
KJMR 101135Z AUTO 33006KT 10SM OVC024 M04/M07 A2988 RMK AO2
KJMR 101115Z AUTO 33006KT 10SM OVC024 M04/M07 A2987 RMK AO2
KJMR 101055Z AUTO 32006KT 10SM OVC024 M05/M08 A2985 RMK AO2
KJMR 101035Z AUTO 32005KT 10SM OVC024 M06/M08 A2984 RMK AO2
KJMR 101015Z AUTO 32004KT 10SM OVC024 M06/M08 A2983 RMK AO2
KJMR 100955Z AUTO 00000KT 10SM OVC024 M06/M09 A2982 RMK AO2
KJMR 100935Z AUTO 30003KT 10SM OVC026 M07/M09 A2982 RMK AO2
KJMR 100915Z AUTO 00000KT 10SM OVC026 M07/M09 A2982 RMK AO2
KJMR 100855Z AUTO 00000KT 10SM OVC028 M07/M09 A2981 RMK AO2
KJMR 100835Z AUTO 00000KT 10SM OVC030 M08/M10 A2981 RMK AO2
KJMR 100815Z AUTO 00000KT 10SM OVC030 M08/M10 A2981 RMK AO2
KJMR 100755Z AUTO 00000KT 10SM SCT024 OVC030 M08/M10 A2981 RMK AO2
KJMR 100735Z AUTO 00000KT 10SM BKN026 M09/M10 A2981 RMK AO2
KJMR 100715Z AUTO 00000KT 10SM SCT028 M10/M12 A2980 RMK AO2
KJMR 100655Z AUTO 00000KT 10SM CLR M09/M11 A2980 RMK AO2
KJMR 100635Z AUTO 00000KT 10SM CLR M08/M11 A2980 RMK AO2
KJMR 100615Z AUTO 00000KT 10SM CLR M08/M10 A2981 RMK AO2
KJMR 100555Z AUTO 17003KT 10SM CLR M08/M10 A2981 RMK AO2
KJMR 100535Z AUTO 19004KT 10SM CLR M08/M11 A2982 RMK AO2
KJMR 100515Z AUTO 19004KT 10SM CLR M07/M11 A2983 RMK AO2
KJMR 100455Z AUTO 21003KT 10SM CLR M07/M10 A2985 RMK AO2
KJMR 100435Z AUTO 21005KT 10SM SCT080 M06/M10 A2984 RMK AO2
KJMR 100415Z AUTO 20008KT 10SM OVC080 M06/M10 A2985 RMK AO2
KJMR 100355Z AUTO 21008KT 10SM BKN080 M06/M10 A2987 RMK AO2
KJMR 100335Z AUTO 22007KT 10SM OVC080 M06/M10 A2989 RMK AO2
KJMR 100315Z AUTO 23007KT 10SM BKN080 M06/M10 A2990 RMK AO2
KJMR 100255Z AUTO 20007KT 10SM SCT090 M06/M10 A2990 RMK AO2
KJMR 100235Z AUTO 20011KT 10SM SCT090 M06/M10 A2990 RMK AO2
KJMR 100215Z AUTO 21008KT 10SM CLR M06/M10 A2992 RMK AO2
KJMR 100155Z AUTO 21007KT 10SM CLR M06/M10 A2993 RMK AO2
KJMR 100135Z AUTO 21005KT 10SM CLR M06/M10 A2994 RMK AO2
KJMR 100115Z AUTO 21006KT 10SM CLR M06/M10 A2994 RMK AO2
KJMR 100055Z AUTO 21006KT 10SM CLR M06/M10 A2996 RMK AO2
KJMR 100035Z AUTO 18006KT 10SM CLR M06/M10 A2996 RMK AO2
KJMR 100015Z AUTO 21006KT 10SM CLR M06/M11 A2998 RMK AO2
KJMR 092355Z AUTO 21004KT 10SM CLR M06/M11 A2999 RMK AO2
KJMR 092335Z AUTO 19005KT 10SM CLR M07/M11 A3000 RMK AO2
KJMR 092315Z AUTO 20004KT 10SM CLR M07/M12 A3001 RMK AO2
KJMR 092255Z AUTO 24004KT 10SM CLR M07/M12 A3002 RMK AO2
KJMR 092235Z AUTO 23003KT 10SM CLR M07/M12 A3002 RMK AO2
KJMR 092215Z AUTO 25004KT 10SM CLR M07/M12 A3003 RMK AO2
KJMR 092155Z AUTO 25006KT 10SM CLR M06/M12 A3003 RMK AO2
KJMR 092135Z AUTO 27006KT 10SM CLR M06/M12 A3004 RMK AO2
KJMR 092115Z AUTO 25005KT 10SM CLR M06/M12 A3004 RMK AO2
KJMR 092055Z AUTO 27005KT 10SM CLR M06/M12 A3005 RMK AO2
KJMR 092035Z AUTO 23005KT 10SM SCT026 SCT060 M06/M12 A3005 RMK AO2
KJMR 092015Z AUTO 26003KT 10SM SCT026 M07/M12 A3006 RMK AO2
KJMR 091955Z AUTO 26004KT 10SM OVC026 M07/M12 A3007 RMK AO2
KJMR 091935Z AUTO 00000KT 10SM BKN026 M07/M12 A3007 RMK AO2
KJMR 091915Z AUTO 00000KT 10SM BKN026 M07/M12 A3007 RMK AO2
KJMR 091855Z AUTO 26006KT 10SM BKN024 M07/M12 A3009 RMK AO2
KJMR 091835Z AUTO 33005KT 10SM BKN024 M07/M13 A3008 RMK AO2
KJMR 091815Z AUTO 31005KT 10SM BKN024 M08/M13 A3008 RMK AO2
KJMR 091755Z AUTO 36003KT 10SM -SN SCT007 SCT011 BKN024 M08/M13 A3009 RMK AO2
KJMR 091735Z AUTO 00000KT 10SM BKN024 M08/M13 A3010 RMK AO2
KJMR 091715Z AUTO 35003KT 10SM SCT008 BKN024 M08/M13 A3010 RMK AO2
KJMR 091655Z AUTO 34004KT 10SM BKN024 M08/M13 A3011 RMK AO2
KJMR 091635Z AUTO 02004KT 10SM BKN024 M08/M13 A3010 RMK AO2
KJMR 091615Z AUTO 36005KT 10SM BKN024 M08/M13 A3011 RMK AO2